Time;durP1;ratioP1;P1;durP2;ratioP2;P2;SDS_P1;SDS_P2;PMS_P1;PMS_P2;Temp;Humidity;BMP_temperature;BMP_pressure;BME280_temperature;BME280_humidity;BME280_pressure;Samples;Min_cycle;Max_cycle;Signal;HPM_P1;HPM_P2
2021/12/01 00:00:17;;;;;;;53.55;29.98;;;8.90;99.90;;;;;;5017566;28;20053;-49
2021/12/01 00:02:43;;;;;;;63.50;32.63;;;8.90;99.90;;;;;;5016876;28;20053;-49
2021/12/01 00:05:09;;;;;;;55.70;32.00;;;9.00;99.90;;;;;;5018333;28;20045;-51
2021/12/01 00:07:36;;;;;;;52.83;29.98;;;9.00;99.90;;;;;;5020845;28;20049;-52
2021/12/01 00:10:09;;;;;;;58.50;30.15;;;9.00;99.90;;;;;;5014930;28;20500;-49
2021/12/01 00:12:34;;;;;;;50.38;28.95;;;8.90;99.90;;;;;;5001228;28;20068;-50
2021/12/01 00:15:01;;;;;;;54.20;28.23;;;9.00;99.90;;;;;;5014777;28;20401;-50
2021/12/01 00:17:27;;;;;;;48.63;27.60;;;9.00;99.90;;;;;;5017756;28;20056;-49
2021/12/01 00:19:53;;;;;;;49.35;25.90;;;8.90;99.90;;;;;;5001092;28;20475;-48
2021/12/01 00:22:20;;;;;;;49.08;25.20;;;9.00;99.90;;;;;;5019588;28;20520;-49
2021/12/01 00:24:45;;;;;;;48.88;26.08;;;9.00;99.90;;;;;;5021828;28;20499;-49
2021/12/01 00:27:11;;;;;;;41.58;24.05;;;9.00;99.90;;;;;;5021335;28;20051;-49
2021/12/01 00:29:37;;;;;;;46.85;22.15;;;9.00;99.90;;;;;;5014767;28;20419;-49
2021/12/01 00:32:03;;;;;;;48.88;23.23;;;9.00;99.90;;;;;;5017137;28;20052;-49
2021/12/01 00:34:31;;;;;;;40.15;22.83;;;9.00;99.90;;;;;;5018256;28;20061;-51
2021/12/01 00:36:57;;;;;;;41.30;21.90;;;9.00;99.90;;;;;;5016892;28;20053;-52
2021/12/01 00:39:22;;;;;;;39.72;21.77;;;8.90;99.90;;;;;;5015951;28;20431;-50
2021/12/01 00:41:50;;;;;;;35.92;20.60;;;9.00;99.90;;;;;;5017298;28;20499;-51
2021/12/01 00:44:15;;;;;;;35.92;18.83;;;9.00;99.90;;;;;;5014579;28;20911;-51
2021/12/01 00:46:42;;;;;;;35.45;20.35;;;9.00;99.90;;;;;;5001991;28;20041;-49
2021/12/01 00:49:08;;;;;;;37.53;20.30;;;9.00;99.90;;;;;;5014750;28;20138;-51
2021/12/01 00:51:34;;;;;;;40.25;19.58;;;9.00;99.90;;;;;;5017136;28;20062;-50
2021/12/01 00:54:00;;;;;;;32.38;17.70;;;9.00;99.90;;;;;;4998339;28;20778;-52
2021/12/01 00:56:26;;;;;;;35.47;18.35;;;9.00;99.90;;;;;;4987400;28;20096;-49
2021/12/01 00:58:52;;;;;;;37.63;17.67;;;9.00;99.90;;;;;;4999604;28;20050;-51
2021/12/01 01:01:18;;;;;;;33.50;15.00;;;9.00;99.90;;;;;;5004081;28;20527;-48
2021/12/01 01:03:44;;;;;;;27.20;14.30;;;9.00;99.90;;;;;;5017376;28;20053;-48
2021/12/01 01:06:10;;;;;;;27.98;13.38;;;9.00;99.90;;;;;;5019031;28;20045;-49
2021/12/01 01:08:36;;;;;;;24.52;12.65;;;9.00;99.90;;;;;;5020275;28;20046;-50
2021/12/01 01:16:23;;;;;;;29.60;11.13;;;9.10;99.90;;;;;;5014595;28;20060;-51
2021/12/01 01:19:02;;;;;;;31.60;11.82;;;9.10;99.90;;;;;;5020728;28;20551;-50
2021/12/01 01:21:32;;;;;;;25.98;10.52;;;9.10;99.90;;;;;;5019829;28;20492;-50
2021/12/01 01:23:59;;;;;;;25.15;10.45;;;9.10;99.90;;;;;;5020553;28;20053;-49
2021/12/01 01:26:26;;;;;;;24.10;9.98;;;9.10;99.90;;;;;;5003944;28;20049;-49
2021/12/01 01:28:52;;;;;;;24.52;8.10;;;9.10;99.90;;;;;;5023391;28;20577;-49
2021/12/01 01:31:21;;;;;;;15.57;7.50;;;9.10;99.90;;;;;;5021822;28;20147;-48
2021/12/01 01:33:49;;;;;;;22.95;7.43;;;9.10;99.90;;;;;;5003755;28;20050;-51
2021/12/01 01:36:15;;;;;;;20.02;8.20;;;9.10;99.90;;;;;;5024438;28;20053;-51
2021/12/01 01:38:41;;;;;;;20.02;7.50;;;9.10;99.90;;;;;;5020723;28;20076;-48
2021/12/01 01:41:09;;;;;;;14.88;7.07;;;9.10;99.90;;;;;;5022539;28;20050;-51
2021/12/01 01:43:36;;;;;;;18.35;5.70;;;9.10;99.90;;;;;;5015025;28;20121;-50
2021/12/01 01:46:03;;;;;;;12.02;4.40;;;9.10;99.90;;;;;;5016340;28;20104;-51
2021/12/01 01:48:31;;;;;;;16.58;5.05;;;9.10;99.90;;;;;;5020052;28;20459;-48
2021/12/01 01:51:03;;;;;;;19.95;5.25;;;9.10;99.90;;;;;;5003259;28;20046;-49
2021/12/01 01:53:30;;;;;;;17.02;5.50;;;9.20;99.90;;;;;;5016706;28;20048;-50
2021/12/01 01:55:58;;;;;;;14.27;5.43;;;9.20;99.90;;;;;;5023975;28;20152;-49
2021/12/01 01:58:25;;;;;;;17.98;5.15;;;9.10;99.90;;;;;;5023724;28;20045;-51
2021/12/01 02:01:06;;;;;;;14.88;4.50;;;9.20;99.90;;;;;;5002274;28;20065;-49
2021/12/01 02:03:34;;;;;;;17.52;4.47;;;9.10;99.90;;;;;;5022898;28;20049;-53
2021/12/01 02:06:00;;;;;;;10.30;4.05;;;9.10;99.90;;;;;;5021787;28;20096;-51
2021/12/01 02:08:30;;;;;;;16.63;3.78;;;9.20;99.90;;;;;;5023434;28;20053;-54
2021/12/01 02:10:58;;;;;;;13.00;3.47;;;9.20;99.90;;;;;;5005845;28;20099;-51
2021/12/01 02:13:24;;;;;;;13.52;4.50;;;9.20;99.90;;;;;;5019914;28;20053;-49
2021/12/01 02:15:52;;;;;;;11.40;4.03;;;9.10;99.90;;;;;;5017464;28;20041;-49
2021/12/01 02:18:21;;;;;;;16.80;3.88;;;9.10;99.90;;;;;;5019337;28;20041;-49
2021/12/01 02:21:15;;;;;;;15.68;4.05;;;9.10;99.90;;;;;;5014115;28;20058;-52
2021/12/01 02:23:47;;;;;;;10.27;3.45;;;9.10;99.90;;;;;;5019733;28;20045;-48
2021/12/01 02:26:15;;;;;;;8.93;4.07;;;9.10;99.90;;;;;;5022721;28;20041;-50
2021/12/01 02:28:43;;;;;;;8.57;3.17;;;9.10;99.90;;;;;;5022818;28;20572;-49
2021/12/01 02:31:09;;;;;;;10.07;3.20;;;9.10;99.90;;;;;;5022928;28;20052;-49
2021/12/01 02:33:35;;;;;;;19.80;4.03;;;9.20;99.90;;;;;;5021064;28;20118;-48
2021/12/01 02:36:02;;;;;;;15.45;3.50;;;9.20;99.90;;;;;;5019333;28;20056;-50
2021/12/01 02:38:28;;;;;;;16.08;3.08;;;9.20;99.90;;;;;;5022658;28;20056;-49
2021/12/01 02:40:54;;;;;;;20.20;3.72;;;9.20;99.90;;;;;;5005666;28;20077;-49
2021/12/01 02:43:24;;;;;;;19.45;3.47;;;9.20;99.90;;;;;;5022521;28;20100;-51
2021/12/01 02:45:54;;;;;;;20.73;4.70;;;9.20;99.90;;;;;;5023906;28;20051;-49
2021/12/01 02:48:22;;;;;;;17.63;5.05;;;9.20;99.90;;;;;;5005030;28;20488;-51
2021/12/01 02:50:49;;;;;;;18.95;4.93;;;9.20;99.90;;;;;;5021078;28;20084;-50
2021/12/01 02:53:16;;;;;;;16.30;4.15;;;9.30;99.90;;;;;;5014297;28;20111;-51
2021/12/01 02:55:56;;;;;;;13.65;4.05;;;9.20;99.90;;;;;;5023193;28;20041;-50
2021/12/01 02:58:23;;;;;;;19.65;4.43;;;9.20;99.90;;;;;;5022910;28;20448;-49
2021/12/01 03:00:52;;;;;;;18.70;4.60;;;9.20;99.90;;;;;;5022642;28;20045;-49
2021/12/01 03:03:19;;;;;;;23.23;3.75;;;9.20;99.90;;;;;;5018092;28;20045;-51
2021/12/01 03:05:49;;;;;;;19.88;3.80;;;9.20;99.90;;;;;;5018099;28;20088;-51
2021/12/01 03:08:19;;;;;;;23.55;4.57;;;9.20;99.90;;;;;;4998703;28;20076;-52
2021/12/01 03:10:48;;;;;;;25.25;4.68;;;9.20;99.90;;;;;;5014426;28;20107;-49
2021/12/01 03:13:14;;;;;;;22.35;4.68;;;9.20;99.90;;;;;;5017696;28;20054;-50
2021/12/01 03:15:40;;;;;;;21.25;4.32;;;9.20;99.90;;;;;;5022940;28;20049;-52
2021/12/01 03:18:06;;;;;;;29.75;5.40;;;9.20;99.90;;;;;;5023441;28;20159;-50
2021/12/01 03:20:32;;;;;;;33.70;5.30;;;9.20;99.90;;;;;;5021943;28;20535;-49
2021/12/01 03:22:57;;;;;;;23.13;4.82;;;9.10;99.90;;;;;;5002548;28;20438;-52
2021/12/01 03:25:24;;;;;;;22.80;4.32;;;9.20;99.90;;;;;;5022556;28;20550;-49
2021/12/01 03:27:50;;;;;;;27.73;5.45;;;9.10;99.90;;;;;;5017556;28;20057;-49
2021/12/01 03:30:16;;;;;;;23.55;4.00;;;9.10;99.90;;;;;;5017394;28;20099;-47
2021/12/01 03:32:42;;;;;;;26.13;4.28;;;9.10;99.90;;;;;;5020218;28;20108;-50
2021/12/01 03:35:12;;;;;;;23.98;4.05;;;9.10;99.90;;;;;;4991613;28;20052;-51
2021/12/01 03:37:40;;;;;;;25.40;4.55;;;9.10;99.90;;;;;;5019749;28;20049;-50
2021/12/01 03:40:06;;;;;;;23.85;4.80;;;9.10;99.90;;;;;;5018851;28;20087;-50
2021/12/01 03:42:32;;;;;;;29.33;4.85;;;9.10;99.90;;;;;;5016475;28;20053;-49
2021/12/01 03:44:58;;;;;;;29.65;5.72;;;9.10;99.90;;;;;;5016625;28;20075;-50
2021/12/01 03:47:26;;;;;;;25.95;5.07;;;9.10;99.90;;;;;;4999955;28;20153;-49
2021/12/01 03:49:52;;;;;;;21.80;4.20;;;9.00;99.90;;;;;;5001421;28;20049;-49
2021/12/01 03:52:18;;;;;;;24.98;4.55;;;9.00;99.90;;;;;;5009799;28;20513;-48
2021/12/01 03:54:45;;;;;;;30.25;4.82;;;9.00;99.90;;;;;;5003948;28;20143;-51
2021/12/01 03:57:12;;;;;;;26.02;5.22;;;9.00;99.90;;;;;;5022141;28;20046;-49
2021/12/01 03:59:37;;;;;;;22.58;3.70;;;9.00;99.90;;;;;;5021934;28;20571;-49
2021/12/01 04:02:04;;;;;;;22.15;4.40;;;9.00;99.90;;;;;;5018213;28;20061;-49
2021/12/01 04:04:30;;;;;;;19.40;4.10;;;9.00;99.90;;;;;;5016703;28;20053;-49
2021/12/01 04:06:55;;;;;;;29.83;4.22;;;9.00;99.90;;;;;;5017696;28;20045;-48
2021/12/01 04:09:21;;;;;;;20.48;4.55;;;9.00;99.90;;;;;;5021860;28;20049;-49
2021/12/01 04:11:47;;;;;;;21.73;3.92;;;9.00;99.90;;;;;;5021835;28;20122;-51
2021/12/01 04:14:13;;;;;;;20.90;4.22;;;9.00;99.90;;;;;;5021064;28;20049;-51
2021/12/01 04:16:39;;;;;;;16.45;3.92;;;9.00;99.90;;;;;;5021318;28;20414;-51
2021/12/01 04:19:05;;;;;;;15.65;3.97;;;9.00;99.90;;;;;;5017960;28;20625;-49
2021/12/01 04:21:31;;;;;;;13.88;4.15;;;9.00;99.90;;;;;;5021453;28;20065;-52
2021/12/01 04:23:56;;;;;;;13.32;4.00;;;9.00;99.90;;;;;;5021593;28;20053;-52
2021/12/01 04:26:26;;;;;;;13.52;4.20;;;9.10;99.90;;;;;;5020148;28;20272;-49
2021/12/01 04:28:52;;;;;;;14.10;4.00;;;9.10;99.90;;;;;;5024819;28;20115;-49
2021/12/01 04:31:18;;;;;;;13.02;4.65;;;9.10;99.90;;;;;;5020809;28;20058;-51
2021/12/01 04:33:44;;;;;;;10.90;5.70;;;9.10;99.90;;;;;;5016887;28;20057;-50
2021/12/01 04:36:11;;;;;;;9.27;5.88;;;9.10;99.90;;;;;;5018845;28;20050;-48
2021/12/01 04:38:37;;;;;;;12.35;5.38;;;9.10;99.90;;;;;;5017599;28;20049;-48
2021/12/01 04:41:09;;;;;;;9.50;5.20;;;9.10;99.90;;;;;;5021621;28;20522;-49
2021/12/01 04:43:37;;;;;;;7.93;5.63;;;9.10;99.90;;;;;;5012734;28;20103;-48
2021/12/01 04:46:04;;;;;;;9.25;4.82;;;9.10;99.90;;;;;;5018110;28;20140;-49
2021/12/01 04:48:30;;;;;;;7.57;5.82;;;9.10;99.90;;;;;;5025455;28;20053;-48
2021/12/01 04:50:56;;;;;;;5.10;4.60;;;9.10;99.90;;;;;;5019807;28;20049;-48
2021/12/01 04:53:24;;;;;;;7.18;4.45;;;9.10;99.90;;;;;;5025787;28;20369;-49
2021/12/01 04:55:49;;;;;;;5.68;4.05;;;9.10;99.90;;;;;;5021665;28;20133;-51
2021/12/01 04:58:15;;;;;;;5.35;3.75;;;9.10;99.90;;;;;;5021754;28;20411;-48
2021/12/01 05:00:41;;;;;;;3.35;2.80;;;9.10;99.90;;;;;;4999294;28;20050;-48
2021/12/01 05:03:07;;;;;;;4.75;3.10;;;9.00;99.90;;;;;;5014659;28;20088;-49
2021/12/01 05:05:33;;;;;;;3.13;2.30;;;9.00;99.90;;;;;;5020503;28;20041;-49
2021/12/01 05:07:59;;;;;;;3.88;2.13;;;9.00;99.90;;;;;;5004396;28;20479;-49
2021/12/01 05:10:24;;;;;;;4.18;2.20;;;9.00;99.90;;;;;;5022230;28;20045;-48
2021/12/01 05:12:50;;;;;;;2.58;1.70;;;9.00;99.90;;;;;;5025454;28;20485;-48
2021/12/01 05:15:16;;;;;;;3.00;2.08;;;9.00;99.90;;;;;;5020282;28;20460;-51
2021/12/01 05:17:42;;;;;;;2.70;1.58;;;9.00;99.90;;;;;;5003831;28;20691;-48
2021/12/01 05:20:11;;;;;;;3.35;1.80;;;9.00;99.90;;;;;;5021259;28;20119;-49
2021/12/01 05:22:37;;;;;;;2.63;1.95;;;8.90;99.90;;;;;;5025650;28;20037;-49
2021/12/01 05:25:10;;;;;;;3.47;2.20;;;9.00;99.90;;;;;;5023856;28;20048;-50
2021/12/01 05:27:36;;;;;;;2.70;2.08;;;8.90;99.90;;;;;;5022605;28;20055;-48
2021/12/01 05:30:04;;;;;;;2.83;2.13;;;8.90;99.90;;;;;;5001289;28;20243;-48
2021/12/01 05:32:31;;;;;;;3.30;2.47;;;8.90;99.90;;;;;;5021854;28;20060;-52
2021/12/01 05:34:57;;;;;;;3.17;2.42;;;8.80;99.90;;;;;;5023349;28;20054;-49
2021/12/01 05:37:23;;;;;;;3.25;2.60;;;8.80;99.90;;;;;;5025185;28;20045;-49
2021/12/01 05:39:49;;;;;;;4.70;3.00;;;8.80;99.90;;;;;;5021941;28;20215;-51
2021/12/01 05:42:16;;;;;;;5.40;2.80;;;8.80;99.90;;;;;;5024624;28;20049;-50
2021/12/01 05:44:44;;;;;;;3.58;3.17;;;8.80;99.90;;;;;;5020682;28;20400;-51
2021/12/01 05:47:10;;;;;;;5.30;3.63;;;8.80;99.90;;;;;;5002503;28;20064;-52
2021/12/01 05:49:44;;;;;;;7.78;4.70;;;8.80;99.90;;;;;;5022678;28;20392;-51
2021/12/01 05:52:12;;;;;;;5.88;4.10;;;8.70;99.90;;;;;;5008233;28;20049;-49
2021/12/01 05:54:38;;;;;;;5.93;4.10;;;8.70;99.90;;;;;;5023292;28;20128;-50
2021/12/01 05:57:04;;;;;;;6.50;4.65;;;8.70;99.90;;;;;;4987314;28;20057;-48
2021/12/01 05:59:30;;;;;;;6.93;5.00;;;8.70;99.90;;;;;;5024452;28;20058;-49
2021/12/01 06:01:56;;;;;;;6.15;5.35;;;8.70;99.90;;;;;;5023779;28;20048;-50
2021/12/01 06:04:25;;;;;;;5.95;4.80;;;8.70;99.90;;;;;;5024780;28;20068;-49
2021/12/01 06:06:54;;;;;;;5.60;4.97;;;8.70;99.90;;;;;;5022732;28;20053;-51
2021/12/01 06:09:20;;;;;;;6.28;5.25;;;8.70;99.90;;;;;;5023855;28;20522;-49
2021/12/01 06:11:47;;;;;;;6.03;4.50;;;8.70;99.90;;;;;;5024046;28;20057;-50
2021/12/01 06:14:14;;;;;;;6.30;4.90;;;8.70;99.90;;;;;;5024286;28;20128;-48
2021/12/01 06:16:42;;;;;;;5.65;4.95;;;8.70;99.90;;;;;;5017887;28;20215;-48
2021/12/01 06:19:07;;;;;;;5.90;4.65;;;8.60;99.90;;;;;;5023462;28;20057;-49
2021/12/01 06:21:33;;;;;;;7.78;4.65;;;8.60;99.90;;;;;;5000688;28;20516;-48
2021/12/01 06:23:59;;;;;;;6.18;4.72;;;8.60;99.90;;;;;;5023450;28;20049;-48
2021/12/01 06:26:25;;;;;;;6.90;5.10;;;8.60;99.90;;;;;;5004083;28;20053;-48
2021/12/01 06:28:51;;;;;;;8.60;5.07;;;8.60;99.90;;;;;;5022575;28;20049;-51
2021/12/01 06:31:17;;;;;;;5.80;5.30;;;8.60;99.90;;;;;;5020823;28;20103;-50
2021/12/01 06:33:43;;;;;;;6.03;5.32;;;8.60;99.90;;;;;;5016108;28;20540;-49
2021/12/01 06:36:08;;;;;;;6.25;5.60;;;8.70;99.90;;;;;;5016577;28;20587;-49
2021/12/01 06:38:35;;;;;;;7.10;5.28;;;8.60;99.90;;;;;;5022819;28;20049;-49
2021/12/01 06:41:01;;;;;;;5.60;5.00;;;8.60;99.90;;;;;;5024076;28;20534;-51
2021/12/01 06:43:29;;;;;;;5.40;4.82;;;8.60;99.90;;;;;;5018737;28;20132;-48
2021/12/01 06:45:55;;;;;;;5.70;5.20;;;8.70;99.90;;;;;;5019203;28;20099;-49
2021/12/01 06:48:21;;;;;;;6.15;5.50;;;8.70;99.90;;;;;;5004395;28;20049;-49
2021/12/01 06:50:47;;;;;;;7.60;6.38;;;8.70;99.90;;;;;;5023591;28;20059;-48
2021/12/01 06:53:13;;;;;;;9.27;6.90;;;8.70;99.90;;;;;;4996281;28;20054;-51
2021/12/01 06:55:40;;;;;;;7.78;6.97;;;8.70;99.90;;;;;;5023161;28;20095;-53
2021/12/01 06:58:06;;;;;;;7.68;6.93;;;8.70;99.90;;;;;;5018953;28;20053;-56
2021/12/01 07:00:32;;;;;;;8.23;7.07;;;8.70;99.90;;;;;;5021152;28;20045;-51
2021/12/01 07:02:57;;;;;;;9.23;6.63;;;8.70;99.90;;;;;;5003106;28;20057;-49
2021/12/01 07:05:23;;;;;;;7.63;6.63;;;8.70;99.90;;;;;;5000568;28;20089;-50
2021/12/01 07:07:49;;;;;;;10.30;6.80;;;8.70;99.90;;;;;;5018603;28;20045;-51
2021/12/01 07:10:18;;;;;;;9.63;7.32;;;8.70;99.90;;;;;;4989117;28;20041;-49
2021/12/01 07:12:43;;;;;;;10.32;7.90;;;8.70;99.90;;;;;;5022741;28;20056;-50
2021/12/01 07:15:11;;;;;;;11.50;9.32;;;8.70;99.90;;;;;;5017845;28;20045;-48
2021/12/01 07:17:37;;;;;;;12.90;8.82;;;8.70;99.90;;;;;;5022138;28;20060;-53
2021/12/01 07:20:04;;;;;;;11.40;9.07;;;8.70;99.90;;;;;;5018025;28;20119;-52
2021/12/01 07:22:30;;;;;;;11.45;10.00;;;8.70;99.90;;;;;;5000915;28;20053;-48
2021/12/01 07:24:56;;;;;;;12.88;9.20;;;8.70;99.90;;;;;;5020680;28;20056;-52
2021/12/01 07:27:23;;;;;;;13.75;10.85;;;8.70;99.90;;;;;;5024364;28;20076;-52
2021/12/01 07:29:49;;;;;;;11.68;9.05;;;8.70;99.90;;;;;;5021331;28;20128;-52
2021/12/01 07:32:15;;;;;;;10.02;8.63;;;8.70;99.90;;;;;;5022122;28;20128;-51
2021/12/01 07:34:41;;;;;;;12.10;7.80;;;8.70;99.90;;;;;;5007287;28;20052;-52
2021/12/01 07:37:11;;;;;;;12.93;8.63;;;8.70;99.90;;;;;;5021767;28;20522;-50
2021/12/01 07:39:37;;;;;;;10.90;8.23;;;8.70;99.90;;;;;;5012106;28;20547;-49
2021/12/01 07:42:04;;;;;;;10.13;7.78;;;8.80;99.90;;;;;;5020708;28;20053;-49
2021/12/01 07:44:29;;;;;;;8.95;7.60;;;8.80;99.90;;;;;;5001915;28;20065;-49
2021/12/01 07:46:55;;;;;;;12.82;7.38;;;8.80;99.90;;;;;;4998826;28;20484;-48
2021/12/01 07:49:21;;;;;;;14.20;7.85;;;8.80;99.90;;;;;;5022073;28;20045;-48
2021/12/01 07:51:47;;;;;;;16.08;7.78;;;8.80;99.90;;;;;;5013462;28;20506;-49
2021/12/01 07:54:13;;;;;;;17.45;9.25;;;8.80;99.90;;;;;;5021289;28;20147;-51
2021/12/01 07:56:38;;;;;;;10.38;7.88;;;8.80;99.90;;;;;;5017652;28;20049;-49
2021/12/01 07:59:04;;;;;;;10.82;8.55;;;8.80;99.90;;;;;;5022199;28;20442;-49
2021/12/01 08:01:30;;;;;;;12.48;7.65;;;8.80;99.90;;;;;;5022209;28;20564;-49
2021/12/01 08:03:55;;;;;;;11.88;7.47;;;8.80;99.90;;;;;;5002492;28;20080;-50
2021/12/01 08:06:22;;;;;;;12.32;6.50;;;8.80;99.90;;;;;;5021367;28;20046;-50
2021/12/01 08:08:48;;;;;;;11.82;6.10;;;8.80;99.90;;;;;;5018489;28;20381;-50
2021/12/01 08:11:14;;;;;;;9.98;5.90;;;8.80;99.90;;;;;;5021793;28;20507;-49
2021/12/01 08:13:39;;;;;;;13.32;6.55;;;8.80;99.90;;;;;;5020961;28;20055;-49
2021/12/01 08:16:06;;;;;;;8.57;4.18;;;8.80;99.90;;;;;;5024772;28;20110;-51
2021/12/01 08:18:32;;;;;;;11.15;4.13;;;8.80;99.90;;;;;;5022406;28;20072;-49
2021/12/01 08:20:58;;;;;;;11.32;3.53;;;8.70;99.90;;;;;;5022196;28;20053;-49
2021/12/01 08:23:24;;;;;;;16.05;3.58;;;8.70;99.90;;;;;;5024726;28;20052;-50
2021/12/01 08:25:50;;;;;;;20.35;3.85;;;8.60;99.90;;;;;;5025417;28;20541;-50
2021/12/01 08:28:16;;;;;;;16.38;3.42;;;8.60;99.90;;;;;;5024340;28;20049;-49
2021/12/01 08:30:42;;;;;;;18.40;3.70;;;8.50;99.90;;;;;;5004256;28;20053;-51
2021/12/01 08:33:08;;;;;;;15.68;4.45;;;8.50;99.90;;;;;;5006438;28;20045;-48
2021/12/01 08:35:33;;;;;;;14.70;2.80;;;8.50;99.90;;;;;;4997984;28;20064;-48
2021/12/01 08:37:59;;;;;;;17.13;3.20;;;8.50;99.90;;;;;;5028501;28;20060;-50
2021/12/01 08:40:25;;;;;;;12.00;2.78;;;8.50;99.90;;;;;;5026272;28;20049;-54
2021/12/01 08:42:52;;;;;;;15.98;2.58;;;8.50;99.90;;;;;;5025309;28;20219;-52
2021/12/01 08:45:18;;;;;;;14.05;3.22;;;8.40;99.90;;;;;;4999378;28;20077;-52
2021/12/01 08:47:44;;;;;;;16.23;3.17;;;8.40;99.90;;;;;;5015674;28;20053;-50
2021/12/01 08:50:11;;;;;;;10.85;3.42;;;8.40;99.90;;;;;;5020845;28;20081;-48
2021/12/01 08:52:41;;;;;;;13.15;2.42;;;8.40;99.90;;;;;;5014303;28;20151;-48
2021/12/01 08:55:08;;;;;;;17.88;2.60;;;8.40;99.90;;;;;;5018452;28;20136;-49
2021/12/01 08:57:34;;;;;;;13.18;2.42;;;8.50;99.90;;;;;;5002908;28;20119;-50
2021/12/01 09:00:04;;;;;;;10.68;2.33;;;8.50;99.90;;;;;;5024715;28;20050;-49
2021/12/01 09:02:30;;;;;;;17.42;3.05;;;8.60;99.90;;;;;;5021185;28;20574;-48
2021/12/01 09:04:55;;;;;;;11.77;1.88;;;8.60;99.90;;;;;;5023995;28;20049;-50
2021/12/01 09:07:21;;;;;;;16.30;3.15;;;8.60;99.90;;;;;;5023833;28;20056;-52
2021/12/01 09:09:47;;;;;;;8.52;2.55;;;8.60;99.90;;;;;;5025060;28;20512;-51
2021/12/01 09:12:14;;;;;;;9.55;2.67;;;8.60;99.90;;;;;;5007538;28;20060;-48
2021/12/01 09:14:41;;;;;;;13.32;2.53;;;8.50;99.90;;;;;;5021948;28;20106;-50
2021/12/01 09:17:09;;;;;;;15.07;2.63;;;8.50;99.90;;;;;;5021542;28;20061;-50
2021/12/01 09:19:35;;;;;;;18.02;2.15;;;8.50;99.90;;;;;;5024502;28;20413;-53
2021/12/01 09:22:06;;;;;;;15.88;2.33;;;8.50;99.90;;;;;;5024425;28;20064;-49
2021/12/01 09:24:34;;;;;;;15.70;7.22;;;8.50;99.90;;;;;;5019999;28;20049;-50
2021/12/01 09:27:00;;;;;;;25.50;17.10;;;8.40;99.90;;;;;;5003300;28;20367;-50
2021/12/01 09:29:27;;;;;;;15.82;9.85;;;8.50;99.90;;;;;;5021451;28;20135;-51
2021/12/01 09:31:58;;;;;;;18.33;6.28;;;8.50;99.90;;;;;;5023255;28;20045;-51
2021/12/01 09:34:24;;;;;;;10.95;3.50;;;8.60;99.90;;;;;;5000139;28;20093;-50
2021/12/01 09:36:50;;;;;;;15.57;3.97;;;8.60;99.90;;;;;;5024113;28;20077;-47
2021/12/01 09:39:16;;;;;;;13.10;2.90;;;8.70;99.90;;;;;;5021768;28;20550;-49
2021/12/01 09:41:43;;;;;;;15.15;4.68;;;8.80;99.90;;;;;;5024598;28;20537;-49
2021/12/01 09:44:12;;;;;;;15.40;3.63;;;8.80;99.90;;;;;;5022898;28;20083;-50
2021/12/01 09:46:38;;;;;;;17.13;3.67;;;8.90;99.90;;;;;;5022948;28;20045;-49
2021/12/01 09:49:04;;;;;;;15.70;3.47;;;8.90;99.90;;;;;;5024871;28;20106;-49
2021/12/01 09:51:30;;;;;;;10.38;3.78;;;8.80;99.90;;;;;;5000717;28;20054;-52
2021/12/01 09:53:57;;;;;;;18.08;3.60;;;8.80;99.90;;;;;;5020984;28;20125;-51
2021/12/01 09:56:25;;;;;;;19.70;3.90;;;8.70;99.90;;;;;;5026098;28;20056;-51
2021/12/01 09:58:50;;;;;;;19.67;5.75;;;8.70;99.90;;;;;;5008044;28;20057;-52
2021/12/01 10:01:19;;;;;;;20.80;4.40;;;8.80;99.90;;;;;;5024864;28;20131;-51
2021/12/01 10:03:46;;;;;;;19.27;8.80;;;8.90;99.90;;;;;;5025875;28;20171;-51
2021/12/01 10:06:16;;;;;;;17.13;7.68;;;9.00;99.90;;;;;;5006818;28;20049;-48
2021/12/01 10:08:50;;;;;;;23.63;8.35;;;9.00;99.90;;;;;;5006097;28;20088;-51
2021/12/01 10:11:16;;;;;;;21.75;5.35;;;9.00;99.90;;;;;;5003535;28;20452;-49
2021/12/01 10:13:51;;;;;;;18.50;5.10;;;9.00;99.90;;;;;;5024572;28;20037;-51
2021/12/01 10:16:25;;;;;;;19.90;5.43;;;8.90;99.90;;;;;;5025027;28;20049;-49
2021/12/01 10:19:00;;;;;;;18.48;7.95;;;8.90;99.90;;;;;;5024019;28;20458;-49
2021/12/01 10:21:28;;;;;;;21.60;4.53;;;9.00;99.90;;;;;;5024019;28;20062;-51
2021/12/01 10:23:57;;;;;;;17.98;7.40;;;9.00;99.90;;;;;;5021241;28;20542;-52
2021/12/01 10:26:28;;;;;;;21.00;6.97;;;8.90;99.90;;;;;;5024486;28;20057;-50
2021/12/01 10:29:08;;;;;;;21.20;11.32;;;8.90;99.90;;;;;;5021573;28;20575;-48
2021/12/01 10:31:37;;;;;;;14.20;4.20;;;8.80;99.90;;;;;;5005890;28;20420;-49
2021/12/01 10:34:40;;;;;;;16.00;6.10;;;8.80;99.90;;;;;;5000614;28;20046;-52
2021/12/01 10:37:28;;;;;;;18.15;5.55;;;8.70;99.90;;;;;;5023433;28;20091;-52
2021/12/01 10:40:09;;;;;;;19.85;6.45;;;8.60;99.90;;;;;;5021660;28;20054;-48
2021/12/01 10:43:00;;;;;;;17.77;4.88;;;8.50;99.90;;;;;;5024247;28;20100;-48
2021/12/01 10:45:27;;;;;;;23.08;5.22;;;8.50;99.90;;;;;;5018710;28;20496;-49
2021/12/01 10:47:54;;;;;;;17.25;4.07;;;8.50;99.90;;;;;;5025389;28;20049;-48
2021/12/01 10:50:23;;;;;;;21.00;4.22;;;8.50;99.90;;;;;;5024773;28;20071;-48
2021/12/01 10:52:52;;;;;;;18.15;3.88;;;8.50;99.90;;;;;;5014688;28;20050;-49
2021/12/01 10:55:24;;;;;;;18.95;5.15;;;8.40;99.90;;;;;;5024586;28;20088;-50
2021/12/01 10:58:02;;;;;;;19.55;4.03;;;8.30;99.90;;;;;;5023000;28;20053;-51
2021/12/01 11:00:32;;;;;;;26.38;5.47;;;8.40;99.90;;;;;;5025739;28;20053;-50
2021/12/01 11:03:17;;;;;;;20.05;3.72;;;8.60;99.90;;;;;;5024249;28;20156;-51
2021/12/01 11:05:45;;;;;;;19.48;4.22;;;8.60;99.90;;;;;;4999227;28;20510;-49
2021/12/01 11:08:25;;;;;;;22.08;4.18;;;8.70;99.90;;;;;;5007146;28;20190;-50
2021/12/01 11:11:03;;;;;;;32.80;5.13;;;8.80;99.90;;;;;;5023571;28;20064;-50
2021/12/01 11:13:30;;;;;;;23.00;4.72;;;8.70;99.90;;;;;;5021427;28;20053;-49
2021/12/01 11:16:01;;;;;;;26.65;5.10;;;8.70;99.90;;;;;;5021607;28;20511;-49
2021/12/01 11:18:30;;;;;;;27.98;5.78;;;8.60;99.90;;;;;;5020625;28;20488;-50
2021/12/01 11:20:58;;;;;;;29.55;4.75;;;8.50;99.90;;;;;;5010622;28;20049;-53
2021/12/01 11:23:33;;;;;;;17.50;4.07;;;8.50;99.90;;;;;;5019526;28;20065;-52
2021/12/01 11:26:07;;;;;;;25.70;4.43;;;8.50;99.90;;;;;;5023653;28;20048;-50
2021/12/01 11:28:36;;;;;;;27.25;10.25;;;8.60;99.90;;;;;;5020447;28;20053;-49
2021/12/01 11:31:07;;;;;;;23.42;7.22;;;8.50;99.90;;;;;;5020702;28;20046;-50
2021/12/01 11:33:33;;;;;;;19.75;5.35;;;8.40;99.90;;;;;;5021626;28;20077;-48
2021/12/01 11:36:03;;;;;;;24.98;5.82;;;8.50;99.90;;;;;;5016796;28;20552;-52
2021/12/01 11:38:29;;;;;;;26.40;5.85;;;8.40;99.90;;;;;;5021829;28;20076;-50
2021/12/01 11:40:59;;;;;;;23.52;5.60;;;8.50;99.90;;;;;;5021734;28;20037;-49
2021/12/01 11:43:28;;;;;;;29.10;7.05;;;8.40;99.90;;;;;;5017375;28;20056;-49
2021/12/01 11:45:55;;;;;;;30.95;8.40;;;8.40;99.90;;;;;;5017465;28;20083;-52
2021/12/01 11:48:28;;;;;;;27.67;8.02;;;8.40;99.90;;;;;;5015057;28;20042;-50
2021/12/01 11:51:01;;;;;;;35.17;8.38;;;8.50;99.90;;;;;;5016013;28;20553;-52
2021/12/01 11:53:34;;;;;;;31.35;6.55;;;8.50;99.90;;;;;;5011532;28;20153;-51
2021/12/01 11:56:16;;;;;;;27.10;5.93;;;8.50;99.90;;;;;;5016847;28;20060;-48
2021/12/01 11:58:47;;;;;;;22.73;4.85;;;8.60;99.90;;;;;;5012076;28;20045;-50
2021/12/01 12:01:22;;;;;;;25.52;5.60;;;8.60;99.90;;;;;;5014566;28;20451;-48
2021/12/01 12:04:00;;;;;;;22.25;4.95;;;8.60;99.90;;;;;;5015668;28;20053;-49
2021/12/01 12:06:27;;;;;;;23.83;3.72;;;8.50;99.90;;;;;;5012423;28;20045;-50
2021/12/01 12:09:05;;;;;;;18.55;8.38;;;8.40;99.90;;;;;;5019228;28;20049;-48
2021/12/01 12:11:36;;;;;;;20.70;5.03;;;8.40;99.90;;;;;;5022912;28;20523;-49
2021/12/01 12:14:08;;;;;;;18.48;4.40;;;8.30;99.90;;;;;;5017793;28;20172;-49
2021/12/01 12:16:35;;;;;;;22.95;6.03;;;8.20;99.90;;;;;;5019622;28;20057;-49
2021/12/01 12:19:03;;;;;;;29.77;9.48;;;8.20;99.90;;;;;;5023536;28;20061;-52
2021/12/01 12:24:06;;;;;;;24.67;6.00;;;8.10;99.90;;;;;;5011812;28;20084;-48
2021/12/01 12:26:44;;;;;;;28.42;8.07;;;8.00;99.90;;;;;;5021078;28;20077;-51
2021/12/01 12:29:13;;;;;;;30.83;11.95;;;8.00;99.90;;;;;;5020741;28;20049;-50
2021/12/01 12:31:40;;;;;;;23.80;9.00;;;8.00;99.90;;;;;;5004367;28;20053;-52
2021/12/01 12:34:13;;;;;;;25.05;7.53;;;8.00;99.90;;;;;;5015434;28;20124;-53
2021/12/01 12:36:44;;;;;;;33.55;6.35;;;8.00;99.90;;;;;;5017105;28;20776;-52
2021/12/01 12:39:14;;;;;;;30.83;12.00;;;7.90;99.90;;;;;;5019748;28;20079;-49
2021/12/01 12:41:57;;;;;;;16.88;4.90;;;7.90;99.90;;;;;;4997871;28;20061;-49
2021/12/01 12:44:30;;;;;;;15.20;5.53;;;7.90;99.90;;;;;;5016307;28;20160;-49
2021/12/01 12:47:15;;;;;;;22.63;6.63;;;7.80;99.90;;;;;;5015925;28;20053;-48
2021/12/01 12:49:43;;;;;;;14.20;3.90;;;7.90;99.90;;;;;;5016391;28;20045;-49
2021/12/01 12:52:24;;;;;;;18.85;6.57;;;8.00;99.90;;;;;;5019026;28;20045;-48
2021/12/01 12:54:51;;;;;;;15.23;5.30;;;8.10;99.90;;;;;;5016529;28;20041;-48
2021/12/01 12:57:17;;;;;;;16.67;3.85;;;8.10;99.90;;;;;;5014076;28;20068;-49
2021/12/01 12:59:43;;;;;;;15.40;6.35;;;8.20;99.90;;;;;;5014948;28;20530;-52